createdAt,value
2022-08-26T00:04:34.975Z,4.92
2022-08-26T00:09:47.663Z,4.92
2022-08-26T00:14:53.536Z,4.9
2022-08-26T00:20:02.093Z,4.9
2022-08-26T00:25:11.816Z,4.9
2022-08-26T00:30:26.745Z,4.9
2022-08-26T00:35:28.793Z,4.88
2022-08-26T00:40:38.577Z,4.88
2022-08-26T00:45:48.253Z,4.83
2022-08-26T00:50:56.172Z,4.83
2022-08-26T00:56:05.415Z,4.85
2022-08-26T01:01:14.459Z,4.85
2022-08-26T01:06:23.971Z,4.85
2022-08-26T01:11:31.378Z,4.85
2022-08-26T01:16:44.539Z,4.93
2022-08-26T01:21:50.918Z,4.93
2022-08-26T01:27:00.671Z,4.89
2022-08-26T01:32:08.510Z,4.89
2022-08-26T01:37:18.978Z,4.93
2022-08-26T01:42:30.040Z,4.93
2022-08-26T01:47:41.582Z,4.87
2022-08-26T01:52:55.015Z,4.87
2022-08-26T01:57:57.933Z,4.78
2022-08-26T02:03:30.115Z,4.78
2022-08-26T02:08:46.658Z,4.84
2022-08-26T02:14:00.448Z,4.84
2022-08-26T02:19:17.361Z,4.84
2022-08-26T02:24:31.500Z,4.89
2022-08-26T02:29:46.830Z,4.89
2022-08-26T02:35:03.173Z,4.86
2022-08-26T02:40:17.438Z,4.86
2022-08-26T02:45:35.499Z,4.87
2022-08-26T02:50:02.308Z,4.87
2022-08-26T02:54:42.865Z,4.85
2022-08-26T02:59:53.137Z,4.85
2022-08-26T03:05:02.909Z,4.97
2022-08-26T03:10:12.661Z,4.97
2022-08-26T03:15:21.148Z,4.92
2022-08-26T03:20:30.259Z,4.92
2022-08-26T03:25:40.036Z,4.98
2022-08-26T03:30:49.165Z,4.98
2022-08-26T03:35:58.253Z,5.23
2022-08-26T03:41:06.988Z,5.23
2022-08-26T03:46:16.827Z,5.62
2022-08-26T03:51:26.446Z,5.62
2022-08-26T03:56:36.030Z,5.57
2022-08-26T04:01:44.860Z,5.57
2022-08-26T04:06:54.273Z,5.82
2022-08-26T04:12:04.903Z,5.82
2022-08-26T04:17:13.770Z,6.31
2022-08-26T04:22:25.269Z,6.31
2022-08-26T04:27:34.345Z,6.25
2022-08-26T04:32:42.552Z,6.25
2022-08-26T04:37:51.527Z,6.47
2022-08-26T04:43:00.271Z,6.47
2022-08-26T04:48:11.266Z,6.78
2022-08-26T04:53:18.256Z,6.78
2022-08-26T04:58:26.726Z,7
2022-08-26T05:03:36.406Z,7
2022-08-26T05:08:44.332Z,7.23
2022-08-26T05:13:54.106Z,7.23
2022-08-26T05:19:03.212Z,7.4
2022-08-26T05:24:13.005Z,7.4
2022-08-26T05:29:22.896Z,7.9
2022-08-26T05:34:30.879Z,7.9
2022-08-26T05:39:51.647Z,8.15
2022-08-26T05:44:56.427Z,8.22
2022-08-26T05:50:00.528Z,8.22
2022-08-26T05:55:09.617Z,7.99
2022-08-26T06:00:18.099Z,7.99
2022-08-26T06:05:30.423Z,8.07
2022-08-26T06:10:45.260Z,8.07
2022-08-26T06:16:00.805Z,7.84
2022-08-26T06:21:15.659Z,7.84
2022-08-26T06:26:31.184Z,8.03
2022-08-26T06:31:47.363Z,8.03
2022-08-26T06:37:02.406Z,8.19
2022-08-26T06:42:19.858Z,8.19
2022-08-26T06:47:35.884Z,8
2022-08-26T06:52:52.018Z,8
2022-08-26T06:57:25.212Z,7.84
2022-08-26T07:02:08.376Z,7.84
2022-08-26T07:07:21.915Z,7.25
2022-08-26T07:12:25.268Z,7.25
2022-08-26T07:17:34.167Z,7.44
2022-08-26T07:22:46.579Z,7.44
2022-08-26T07:27:55.698Z,6.84
2022-08-26T07:33:10.929Z,6.84
2022-08-26T07:38:15.849Z,7.07
2022-08-26T07:43:25.618Z,7.07
2022-08-26T07:48:35.768Z,7.37
2022-08-26T07:53:53.481Z,7.37
2022-08-26T07:58:55.537Z,7.29
2022-08-26T08:04:13.999Z,7.29
2022-08-26T08:09:22.588Z,7.17
2022-08-26T08:14:31.214Z,7.17
2022-08-26T08:19:40.990Z,7.22
2022-08-26T08:24:53.385Z,7.22
2022-08-26T08:30:01.125Z,7.4
2022-08-26T08:35:12.073Z,7.4
2022-08-26T08:40:21.010Z,7.41
2022-08-26T08:45:37.396Z,7.41
2022-08-26T08:50:41.422Z,7.06
2022-08-26T08:55:49.779Z,7.23
2022-08-26T09:00:59.922Z,7.23
2022-08-26T09:06:10.056Z,7.08
2022-08-26T09:11:19.216Z,7.08
2022-08-26T09:16:29.305Z,6.99
2022-08-26T09:21:39.247Z,6.99
2022-08-26T09:26:49.904Z,6.87
2022-08-26T09:31:58.257Z,6.87
2022-08-26T09:37:07.381Z,6.76
2022-08-26T09:42:16.983Z,6.76
2022-08-26T09:47:25.678Z,6.27
2022-08-26T09:52:37.040Z,6.27
2022-08-26T09:58:10.017Z,6.82
2022-08-26T10:03:18.626Z,6.82
2022-08-26T10:08:25.250Z,6.94
2022-08-26T10:13:36.174Z,6.94
2022-08-26T10:18:44.664Z,6.99
2022-08-26T10:23:53.376Z,6.99
2022-08-26T10:29:08.195Z,6.69
2022-08-26T10:34:27.488Z,6.69
2022-08-26T10:44:58.671Z,6.27
2022-08-26T10:50:14.720Z,5.81
2022-08-26T11:00:48.929Z,5.7
2022-08-26T11:11:48.069Z,5.44
2022-08-26T11:12:18.007Z,5.44
2022-08-26T11:17:09.293Z,5.57
2022-08-26T11:43:04.774Z,5.21
2022-08-26T11:54:50.040Z,5.23
2022-08-26T11:55:50.021Z,5.23
2022-08-26T12:00:59.059Z,5.36
2022-08-26T12:07:50.045Z,5.19
2022-08-26T12:20:04.918Z,5.29
2022-08-26T12:30:35.975Z,5.27
2022-08-26T12:41:08.984Z,5.36
2022-08-26T12:46:25.261Z,5.36
2022-08-26T12:51:42.358Z,5.29
2022-08-26T12:56:59.321Z,5.29
2022-08-26T13:02:16.536Z,5.32
2022-08-26T13:06:42.120Z,5.32
2022-08-26T13:11:10.356Z,5.24
2022-08-26T13:16:27.186Z,5.24
2022-08-26T13:21:44.690Z,4.97
2022-08-26T13:27:00.757Z,4.97
2022-08-26T13:31:06.728Z,4.84
2022-08-26T13:36:14.890Z,4.84
2022-08-26T13:41:29.983Z,4.81
2022-08-26T13:46:34.464Z,4.81
2022-08-26T13:51:42.928Z,4.76
2022-08-26T13:56:52.654Z,4.76
2022-08-26T14:02:02.457Z,4.73
2022-08-26T14:07:12.177Z,4.73
2022-08-26T14:12:21.336Z,4.69
2022-08-26T14:17:32.330Z,4.72
2022-08-26T14:23:14.769Z,4.72
2022-08-26T14:27:59.614Z,4.67
2022-08-26T14:33:07.459Z,4.67
2022-08-26T14:38:16.825Z,4.68
2022-08-26T14:43:26.261Z,4.68
2022-08-26T14:48:38.182Z,4.69
2022-08-26T14:53:45.160Z,4.69
2022-08-26T14:58:57.962Z,4.69
2022-08-26T15:04:12.198Z,4.69
2022-08-26T15:14:33.339Z,4.63
2022-08-26T15:19:49.755Z,4.68
2022-08-26T15:25:06.930Z,4.68
2022-08-26T15:30:23.160Z,4.64
2022-08-26T15:35:40.598Z,4.64
2022-08-26T15:41:00.983Z,4.59
2022-08-26T15:56:50.362Z,4.52
2022-08-26T16:53:52.690Z,4.5
2022-08-26T17:05:35.097Z,4.5
2022-08-26T18:02:53.050Z,4.43
2022-08-26T18:07:17.899Z,4.43
2022-08-26T18:11:14.093Z,4.47
2022-08-26T18:16:23.848Z,4.47
2022-08-26T18:21:32.345Z,4.45
2022-08-26T18:26:42.103Z,4.45
2022-08-26T18:31:51.240Z,4.44
2022-08-26T18:37:00.612Z,4.44
2022-08-26T18:42:11.784Z,4.4
2022-08-26T18:47:22.411Z,4.4
2022-08-26T18:52:30.266Z,4.45
2022-08-26T18:57:39.377Z,4.45
2022-08-26T19:02:56.550Z,4.42
2022-08-26T19:07:56.334Z,4.42
2022-08-26T19:13:08.335Z,4.43
2022-08-26T19:18:14.572Z,4.43
2022-08-26T19:23:33.547Z,4.39
2022-08-26T19:28:36.029Z,4.39
2022-08-26T19:33:45.137Z,4.4
2022-08-26T19:38:53.637Z,4.4
2022-08-26T19:44:04.128Z,4.31
2022-08-26T19:49:12.494Z,4.38
2022-08-26T19:54:20.972Z,4.38
2022-08-26T19:59:31.017Z,4.34
2022-08-26T20:04:42.563Z,4.34
2022-08-26T20:10:00.579Z,4.37
2022-08-26T20:15:13.593Z,4.37
2022-08-26T20:20:34.083Z,4.36
2022-08-26T20:25:43.323Z,4.36
2022-08-26T20:30:58.224Z,4.35
2022-08-26T20:36:14.378Z,4.35
2022-08-26T20:46:46.067Z,4.36
2022-08-26T20:57:18.375Z,4.37
2022-08-26T21:07:50.103Z,4.33
2022-08-26T21:18:22.055Z,4.36
